sensor_id;sensor_type;location;lat;lon;timestamp;P1;durP1;ratioP1;P2;durP2;ratioP2
63434;SDS011;68814;50.872;5.306;2023-08-31T00:02:11;1.83;;;1.00;;
63434;SDS011;68814;50.872;5.306;2023-08-31T00:04:36;1.25;;;0.90;;
63434;SDS011;68814;50.872;5.306;2023-08-31T00:07:02;5.25;;;0.80;;
63434;SDS011;68814;50.872;5.306;2023-08-31T00:09:28;0.85;;;0.80;;
63434;SDS011;68814;50.872;5.306;2023-08-31T00:11:56;1.25;;;0.52;;
63434;SDS011;68814;50.872;5.306;2023-08-31T00:14:22;2.78;;;0.88;;
63434;SDS011;68814;50.872;5.306;2023-08-31T00:16:48;1.85;;;0.82;;
63434;SDS011;68814;50.872;5.306;2023-08-31T00:19:15;0.90;;;0.80;;
63434;SDS011;68814;50.872;5.306;2023-08-31T00:21:41;0.82;;;0.60;;
63434;SDS011;68814;50.872;5.306;2023-08-31T00:24:07;1.92;;;0.80;;
63434;SDS011;68814;50.872;5.306;2023-08-31T00:26:33;2.03;;;1.10;;
63434;SDS011;68814;50.872;5.306;2023-08-31T00:28:59;1.35;;;0.98;;
63434;SDS011;68814;50.872;5.306;2023-08-31T00:31:25;2.03;;;1.35;;
63434;SDS011;68814;50.872;5.306;2023-08-31T00:33:52;2.42;;;1.13;;
63434;SDS011;68814;50.872;5.306;2023-08-31T00:36:18;3.38;;;1.52;;
63434;SDS011;68814;50.872;5.306;2023-08-31T00:38:44;2.28;;;1.25;;
63434;SDS011;68814;50.872;5.306;2023-08-31T00:41:10;4.45;;;1.33;;
63434;SDS011;68814;50.872;5.306;2023-08-31T00:43:37;2.47;;;1.10;;
63434;SDS011;68814;50.872;5.306;2023-08-31T00:46:03;3.47;;;1.30;;
63434;SDS011;68814;50.872;5.306;2023-08-31T00:48:29;3.53;;;1.20;;
63434;SDS011;68814;50.872;5.306;2023-08-31T00:50:55;5.53;;;1.73;;
63434;SDS011;68814;50.872;5.306;2023-08-31T00:53:21;2.60;;;1.50;;
63434;SDS011;68814;50.872;5.306;2023-08-31T00:55:47;2.40;;;1.60;;
63434;SDS011;68814;50.872;5.306;2023-08-31T00:58:13;4.95;;;1.67;;
63434;SDS011;68814;50.872;5.306;2023-08-31T01:03:26;2.58;;;1.33;;
63434;SDS011;68814;50.872;5.306;2023-08-31T01:06:27;3.22;;;1.60;;
63434;SDS011;68814;50.872;5.306;2023-08-31T01:08:57;3.35;;;1.65;;
63434;SDS011;68814;50.872;5.306;2023-08-31T01:14:10;3.88;;;1.65;;
63434;SDS011;68814;50.872;5.306;2023-08-31T01:16:44;3.55;;;1.48;;
63434;SDS011;68814;50.872;5.306;2023-08-31T01:22:16;4.50;;;1.67;;
63434;SDS011;68814;50.872;5.306;2023-08-31T01:24:46;3.42;;;1.67;;
63434;SDS011;68814;50.872;5.306;2023-08-31T01:27:12;5.75;;;1.58;;
63434;SDS011;68814;50.872;5.306;2023-08-31T01:29:41;4.45;;;1.48;;
63434;SDS011;68814;50.872;5.306;2023-08-31T01:32:07;2.45;;;1.52;;
63434;SDS011;68814;50.872;5.306;2023-08-31T01:34:33;3.30;;;1.67;;
63434;SDS011;68814;50.872;5.306;2023-08-31T01:37:00;2.17;;;1.90;;
63434;SDS011;68814;50.872;5.306;2023-08-31T01:39:35;2.90;;;2.17;;
63434;SDS011;68814;50.872;5.306;2023-08-31T01:42:07;4.75;;;1.80;;
63434;SDS011;68814;50.872;5.306;2023-08-31T01:44:35;3.28;;;2.10;;
63434;SDS011;68814;50.872;5.306;2023-08-31T01:47:04;3.92;;;2.53;;
63434;SDS011;68814;50.872;5.306;2023-08-31T01:49:40;6.53;;;2.00;;
63434;SDS011;68814;50.872;5.306;2023-08-31T01:52:06;4.15;;;2.42;;
63434;SDS011;68814;50.872;5.306;2023-08-31T01:54:32;5.70;;;2.15;;
63434;SDS011;68814;50.872;5.306;2023-08-31T01:56:58;2.65;;;2.25;;
63434;SDS011;68814;50.872;5.306;2023-08-31T01:59:24;7.60;;;2.58;;
63434;SDS011;68814;50.872;5.306;2023-08-31T02:01:50;6.10;;;2.70;;
63434;SDS011;68814;50.872;5.306;2023-08-31T02:04:16;6.05;;;2.80;;
63434;SDS011;68814;50.872;5.306;2023-08-31T02:06:42;2.92;;;2.58;;
63434;SDS011;68814;50.872;5.306;2023-08-31T02:09:08;6.53;;;3.30;;
63434;SDS011;68814;50.872;5.306;2023-08-31T02:11:33;5.00;;;2.72;;
63434;SDS011;68814;50.872;5.306;2023-08-31T02:14:03;6.80;;;3.55;;
63434;SDS011;68814;50.872;5.306;2023-08-31T02:16:29;7.82;;;3.70;;
63434;SDS011;68814;50.872;5.306;2023-08-31T02:18:56;7.25;;;3.15;;
63434;SDS011;68814;50.872;5.306;2023-08-31T02:21:22;6.57;;;3.70;;
63434;SDS011;68814;50.872;5.306;2023-08-31T02:23:48;7.40;;;3.97;;
63434;SDS011;68814;50.872;5.306;2023-08-31T02:26:14;8.82;;;3.42;;
63434;SDS011;68814;50.872;5.306;2023-08-31T02:28:39;9.68;;;4.30;;
63434;SDS011;68814;50.872;5.306;2023-08-31T02:31:05;5.03;;;4.00;;
63434;SDS011;68814;50.872;5.306;2023-08-31T02:33:31;7.50;;;3.92;;
63434;SDS011;68814;50.872;5.306;2023-08-31T02:35:57;7.40;;;4.50;;
63434;SDS011;68814;50.872;5.306;2023-08-31T02:38:23;10.68;;;4.70;;
63434;SDS011;68814;50.872;5.306;2023-08-31T02:40:49;8.13;;;4.70;;
63434;SDS011;68814;50.872;5.306;2023-08-31T02:43:15;7.70;;;4.25;;
63434;SDS011;68814;50.872;5.306;2023-08-31T02:45:43;8.40;;;4.60;;
63434;SDS011;68814;50.872;5.306;2023-08-31T02:48:11;14.70;;;5.40;;
63434;SDS011;68814;50.872;5.306;2023-08-31T02:50:38;7.47;;;4.57;;
63434;SDS011;68814;50.872;5.306;2023-08-31T02:53:04;13.15;;;4.65;;
63434;SDS011;68814;50.872;5.306;2023-08-31T02:55:36;9.63;;;4.72;;
63434;SDS011;68814;50.872;5.306;2023-08-31T02:58:02;8.85;;;4.63;;
63434;SDS011;68814;50.872;5.306;2023-08-31T03:00:28;7.85;;;4.60;;
63434;SDS011;68814;50.872;5.306;2023-08-31T03:02:53;11.35;;;4.68;;
63434;SDS011;68814;50.872;5.306;2023-08-31T03:05:19;9.50;;;5.07;;
63434;SDS011;68814;50.872;5.306;2023-08-31T03:07:46;10.68;;;5.18;;
63434;SDS011;68814;50.872;5.306;2023-08-31T03:10:12;9.38;;;4.80;;
63434;SDS011;68814;50.872;5.306;2023-08-31T03:12:41;10.25;;;4.85;;
63434;SDS011;68814;50.872;5.306;2023-08-31T03:15:07;8.95;;;4.15;;
63434;SDS011;68814;50.872;5.306;2023-08-31T03:20:11;13.85;;;5.05;;
63434;SDS011;68814;50.872;5.306;2023-08-31T03:22:39;9.40;;;4.25;;
63434;SDS011;68814;50.872;5.306;2023-08-31T03:25:05;10.38;;;4.22;;
63434;SDS011;68814;50.872;5.306;2023-08-31T03:27:33;12.00;;;4.70;;
63434;SDS011;68814;50.872;5.306;2023-08-31T03:29:58;11.68;;;4.80;;
63434;SDS011;68814;50.872;5.306;2023-08-31T03:32:24;11.68;;;4.43;;
63434;SDS011;68814;50.872;5.306;2023-08-31T03:34:50;10.93;;;4.03;;
63434;SDS011;68814;50.872;5.306;2023-08-31T03:37:16;10.18;;;4.00;;
63434;SDS011;68814;50.872;5.306;2023-08-31T03:39:42;16.98;;;4.10;;
63434;SDS011;68814;50.872;5.306;2023-08-31T03:42:10;13.05;;;4.18;;
63434;SDS011;68814;50.872;5.306;2023-08-31T03:44:37;12.35;;;5.18;;
63434;SDS011;68814;50.872;5.306;2023-08-31T03:47:03;10.07;;;4.20;;
63434;SDS011;68814;50.872;5.306;2023-08-31T03:49:29;11.85;;;4.47;;
63434;SDS011;68814;50.872;5.306;2023-08-31T03:51:58;12.30;;;4.90;;
63434;SDS011;68814;50.872;5.306;2023-08-31T03:54:27;13.65;;;4.53;;
63434;SDS011;68814;50.872;5.306;2023-08-31T03:56:53;14.43;;;4.50;;
63434;SDS011;68814;50.872;5.306;2023-08-31T03:59:21;13.75;;;4.90;;
63434;SDS011;68814;50.872;5.306;2023-08-31T04:01:47;12.27;;;4.57;;
63434;SDS011;68814;50.872;5.306;2023-08-31T04:04:22;9.70;;;4.35;;
63434;SDS011;68814;50.872;5.306;2023-08-31T04:06:48;12.10;;;4.65;;
63434;SDS011;68814;50.872;5.306;2023-08-31T04:09:13;9.05;;;3.80;;
63434;SDS011;68814;50.872;5.306;2023-08-31T04:11:39;11.00;;;4.57;;
63434;SDS011;68814;50.872;5.306;2023-08-31T04:14:05;17.10;;;4.63;;
63434;SDS011;68814;50.872;5.306;2023-08-31T04:16:33;9.68;;;4.40;;
63434;SDS011;68814;50.872;5.306;2023-08-31T04:18:58;11.20;;;4.13;;
63434;SDS011;68814;50.872;5.306;2023-08-31T04:21:27;8.57;;;4.20;;
63434;SDS011;68814;50.872;5.306;2023-08-31T04:23:55;11.23;;;4.22;;
63434;SDS011;68814;50.872;5.306;2023-08-31T04:26:21;8.07;;;3.42;;
63434;SDS011;68814;50.872;5.306;2023-08-31T04:28:51;11.82;;;4.00;;
63434;SDS011;68814;50.872;5.306;2023-08-31T04:31:17;7.75;;;3.90;;
63434;SDS011;68814;50.872;5.306;2023-08-31T04:33:42;14.70;;;3.85;;
63434;SDS011;68814;50.872;5.306;2023-08-31T04:36:08;8.25;;;3.67;;
63434;SDS011;68814;50.872;5.306;2023-08-31T04:38:34;11.07;;;4.07;;
63434;SDS011;68814;50.872;5.306;2023-08-31T04:41:00;12.63;;;4.25;;
63434;SDS011;68814;50.872;5.306;2023-08-31T04:43:26;13.80;;;4.30;;
63434;SDS011;68814;50.872;5.306;2023-08-31T04:45:53;11.48;;;4.05;;
63434;SDS011;68814;50.872;5.306;2023-08-31T04:48:21;9.27;;;3.40;;
63434;SDS011;68814;50.872;5.306;2023-08-31T04:50:47;10.68;;;4.07;;
63434;SDS011;68814;50.872;5.306;2023-08-31T04:53:22;12.98;;;4.53;;
63434;SDS011;68814;50.872;5.306;2023-08-31T04:55:51;10.73;;;3.80;;
63434;SDS011;68814;50.872;5.306;2023-08-31T04:58:16;6.10;;;3.55;;
63434;SDS011;68814;50.872;5.306;2023-08-31T05:00:44;13.23;;;3.65;;
63434;SDS011;68814;50.872;5.306;2023-08-31T05:03:15;14.77;;;3.70;;
63434;SDS011;68814;50.872;5.306;2023-08-31T05:05:41;15.40;;;3.78;;
63434;SDS011;68814;50.872;5.306;2023-08-31T05:08:11;10.80;;;3.90;;
63434;SDS011;68814;50.872;5.306;2023-08-31T05:10:37;8.60;;;3.50;;
63434;SDS011;68814;50.872;5.306;2023-08-31T05:13:05;10.10;;;3.70;;
63434;SDS011;68814;50.872;5.306;2023-08-31T05:15:34;11.27;;;4.25;;
63434;SDS011;68814;50.872;5.306;2023-08-31T05:18:00;10.63;;;3.70;;
63434;SDS011;68814;50.872;5.306;2023-08-31T05:20:28;8.70;;;3.80;;
63434;SDS011;68814;50.872;5.306;2023-08-31T05:22:56;12.27;;;3.92;;
63434;SDS011;68814;50.872;5.306;2023-08-31T05:25:26;11.38;;;3.85;;
63434;SDS011;68814;50.872;5.306;2023-08-31T05:27:52;14.38;;;3.70;;
63434;SDS011;68814;50.872;5.306;2023-08-31T05:30:20;8.95;;;3.50;;
63434;SDS011;68814;50.872;5.306;2023-08-31T05:32:46;8.90;;;3.63;;
63434;SDS011;68814;50.872;5.306;2023-08-31T05:35:29;7.20;;;3.45;;
63434;SDS011;68814;50.872;5.306;2023-08-31T05:37:57;11.35;;;3.67;;
63434;SDS011;68814;50.872;5.306;2023-08-31T05:40:23;10.15;;;3.67;;
63434;SDS011;68814;50.872;5.306;2023-08-31T05:42:48;9.40;;;3.35;;
63434;SDS011;68814;50.872;5.306;2023-08-31T05:45:14;12.25;;;3.30;;
63434;SDS011;68814;50.872;5.306;2023-08-31T05:47:40;13.18;;;3.00;;
63434;SDS011;68814;50.872;5.306;2023-08-31T05:50:06;8.82;;;3.85;;
63434;SDS011;68814;50.872;5.306;2023-08-31T05:52:32;10.57;;;3.40;;
63434;SDS011;68814;50.872;5.306;2023-08-31T05:54:58;11.20;;;3.70;;
63434;SDS011;68814;50.872;5.306;2023-08-31T05:57:25;8.77;;;3.58;;
63434;SDS011;68814;50.872;5.306;2023-08-31T05:59:52;10.23;;;3.38;;
63434;SDS011;68814;50.872;5.306;2023-08-31T06:02:18;9.38;;;3.38;;
63434;SDS011;68814;50.872;5.306;2023-08-31T06:04:44;8.35;;;3.08;;
63434;SDS011;68814;50.872;5.306;2023-08-31T06:07:15;10.68;;;3.45;;
63434;SDS011;68814;50.872;5.306;2023-08-31T06:12:11;8.43;;;3.08;;
63434;SDS011;68814;50.872;5.306;2023-08-31T06:14:39;12.32;;;3.40;;
63434;SDS011;68814;50.872;5.306;2023-08-31T06:17:10;10.85;;;3.38;;
63434;SDS011;68814;50.872;5.306;2023-08-31T06:19:38;8.95;;;2.53;;
63434;SDS011;68814;50.872;5.306;2023-08-31T06:22:04;6.40;;;2.50;;
63434;SDS011;68814;50.872;5.306;2023-08-31T06:24:29;8.63;;;2.80;;
63434;SDS011;68814;50.872;5.306;2023-08-31T06:26:58;10.15;;;2.55;;
63434;SDS011;68814;50.872;5.306;2023-08-31T06:29:26;7.90;;;2.97;;
63434;SDS011;68814;50.872;5.306;2023-08-31T06:32:13;5.53;;;3.20;;
63434;SDS011;68814;50.872;5.306;2023-08-31T06:34:45;6.18;;;3.13;;
63434;SDS011;68814;50.872;5.306;2023-08-31T06:37:24;9.38;;;3.17;;
63434;SDS011;68814;50.872;5.306;2023-08-31T06:39:52;7.68;;;2.95;;
63434;SDS011;68814;50.872;5.306;2023-08-31T06:43:04;9.40;;;3.20;;
63434;SDS011;68814;50.872;5.306;2023-08-31T06:49:02;8.57;;;2.90;;
63434;SDS011;68814;50.872;5.306;2023-08-31T06:52:11;9.80;;;2.90;;
63434;SDS011;68814;50.872;5.306;2023-08-31T06:54:57;9.57;;;2.88;;
63434;SDS011;68814;50.872;5.306;2023-08-31T06:57:38;9.18;;;3.55;;
63434;SDS011;68814;50.872;5.306;2023-08-31T07:00:20;9.93;;;3.08;;
63434;SDS011;68814;50.872;5.306;2023-08-31T07:06:08;9.57;;;3.33;;
63434;SDS011;68814;50.872;5.306;2023-08-31T07:08:47;11.98;;;3.15;;
63434;SDS011;68814;50.872;5.306;2023-08-31T07:11:21;14.68;;;2.83;;
63434;SDS011;68814;50.872;5.306;2023-08-31T07:14:06;7.28;;;3.13;;
63434;SDS011;68814;50.872;5.306;2023-08-31T07:16:34;11.88;;;3.40;;
63434;SDS011;68814;50.872;5.306;2023-08-31T11:39:06;12.95;;;2.30;;
63434;SDS011;68814;50.872;5.306;2023-08-31T11:41:34;5.72;;;1.80;;
63434;SDS011;68814;50.872;5.306;2023-08-31T11:44:06;3.97;;;1.50;;
63434;SDS011;68814;50.872;5.306;2023-08-31T11:46:42;7.45;;;1.70;;
63434;SDS011;68814;50.872;5.306;2023-08-31T11:49:09;9.00;;;1.98;;
63434;SDS011;68814;50.872;5.306;2023-08-31T11:51:35;7.95;;;2.00;;
63434;SDS011;68814;50.872;5.306;2023-08-31T11:54:03;7.60;;;2.20;;
63434;SDS011;68814;50.872;5.306;2023-08-31T11:59:11;8.20;;;2.00;;
63434;SDS011;68814;50.872;5.306;2023-08-31T12:01:39;5.65;;;1.90;;
63434;SDS011;68814;50.872;5.306;2023-08-31T12:04:10;6.82;;;1.65;;
63434;SDS011;68814;50.872;5.306;2023-08-31T12:06:48;5.95;;;1.63;;
63434;SDS011;68814;50.872;5.306;2023-08-31T12:09:15;6.72;;;2.08;;
63434;SDS011;68814;50.872;5.306;2023-08-31T12:11:42;4.95;;;1.40;;
63434;SDS011;68814;50.872;5.306;2023-08-31T12:14:18;5.18;;;1.40;;
63434;SDS011;68814;50.872;5.306;2023-08-31T12:16:48;8.38;;;1.60;;
63434;SDS011;68814;50.872;5.306;2023-08-31T12:19:15;5.45;;;2.00;;
63434;SDS011;68814;50.872;5.306;2023-08-31T12:21:43;4.55;;;1.40;;
63434;SDS011;68814;50.872;5.306;2023-08-31T12:24:10;3.38;;;1.42;;
63434;SDS011;68814;50.872;5.306;2023-08-31T12:26:37;7.03;;;1.90;;
63434;SDS011;68814;50.872;5.306;2023-08-31T12:29:03;6.75;;;1.70;;
63434;SDS011;68814;50.872;5.306;2023-08-31T12:31:32;8.68;;;1.67;;
63434;SDS011;68814;50.872;5.306;2023-08-31T12:34:03;10.15;;;2.13;;
63434;SDS011;68814;50.872;5.306;2023-08-31T12:36:35;8.02;;;1.75;;
63434;SDS011;68814;50.872;5.306;2023-08-31T12:39:08;8.18;;;1.58;;
63434;SDS011;68814;50.872;5.306;2023-08-31T12:41:37;8.20;;;1.80;;
63434;SDS011;68814;50.872;5.306;2023-08-31T12:44:04;4.70;;;1.60;;
63434;SDS011;68814;50.872;5.306;2023-08-31T12:46:30;7.50;;;1.90;;
63434;SDS011;68814;50.872;5.306;2023-08-31T12:48:56;6.50;;;1.90;;
63434;SDS011;68814;50.872;5.306;2023-08-31T12:51:22;4.53;;;1.58;;
63434;SDS011;68814;50.872;5.306;2023-08-31T12:53:51;6.13;;;1.60;;
63434;SDS011;68814;50.872;5.306;2023-08-31T12:56:17;9.82;;;1.85;;
63434;SDS011;68814;50.872;5.306;2023-08-31T12:58:53;7.32;;;1.90;;
63434;SDS011;68814;50.872;5.306;2023-08-31T13:01:21;6.27;;;1.50;;
63434;SDS011;68814;50.872;5.306;2023-08-31T13:03:51;5.43;;;1.58;;
63434;SDS011;68814;50.872;5.306;2023-08-31T13:06:18;11.60;;;2.00;;
63434;SDS011;68814;50.872;5.306;2023-08-31T13:08:44;5.13;;;1.50;;
63434;SDS011;68814;50.872;5.306;2023-08-31T13:11:10;4.47;;;1.48;;
63434;SDS011;68814;50.872;5.306;2023-08-31T13:13:37;6.10;;;1.02;;
63434;SDS011;68814;50.872;5.306;2023-08-31T13:16:03;7.00;;;1.67;;
63434;SDS011;68814;50.872;5.306;2023-08-31T13:18:29;5.93;;;1.45;;
63434;SDS011;68814;50.872;5.306;2023-08-31T13:20:55;4.43;;;1.40;;
63434;SDS011;68814;50.872;5.306;2023-08-31T13:23:21;2.97;;;1.23;;
63434;SDS011;68814;50.872;5.306;2023-08-31T13:25:48;6.88;;;1.58;;
63434;SDS011;68814;50.872;5.306;2023-08-31T13:28:15;6.18;;;1.58;;
63434;SDS011;68814;50.872;5.306;2023-08-31T13:30:41;3.88;;;1.40;;
63434;SDS011;68814;50.872;5.306;2023-08-31T13:33:07;6.20;;;1.73;;
63434;SDS011;68814;50.872;5.306;2023-08-31T13:35:34;5.00;;;1.65;;
63434;SDS011;68814;50.872;5.306;2023-08-31T13:38:00;10.40;;;1.75;;
63434;SDS011;68814;50.872;5.306;2023-08-31T13:40:30;5.55;;;1.50;;
63434;SDS011;68814;50.872;5.306;2023-08-31T13:42:56;7.97;;;1.75;;
63434;SDS011;68814;50.872;5.306;2023-08-31T13:45:28;5.07;;;1.35;;
63434;SDS011;68814;50.872;5.306;2023-08-31T13:47:56;5.75;;;1.75;;
63434;SDS011;68814;50.872;5.306;2023-08-31T13:50:24;5.47;;;1.67;;
63434;SDS011;68814;50.872;5.306;2023-08-31T13:52:49;6.47;;;1.70;;
63434;SDS011;68814;50.872;5.306;2023-08-31T13:55:15;4.80;;;1.23;;
63434;SDS011;68814;50.872;5.306;2023-08-31T13:57:41;5.90;;;1.30;;
63434;SDS011;68814;50.872;5.306;2023-08-31T14:00:10;4.40;;;1.27;;
63434;SDS011;68814;50.872;5.306;2023-08-31T14:02:37;7.95;;;1.70;;
63434;SDS011;68814;50.872;5.306;2023-08-31T14:05:10;4.57;;;1.23;;
63434;SDS011;68814;50.872;5.306;2023-08-31T14:07:36;2.72;;;1.40;;
63434;SDS011;68814;50.872;5.306;2023-08-31T14:10:03;6.75;;;1.63;;
63434;SDS011;68814;50.872;5.306;2023-08-31T14:12:34;12.13;;;2.08;;
63434;SDS011;68814;50.872;5.306;2023-08-31T14:15:04;4.93;;;1.40;;
63434;SDS011;68814;50.872;5.306;2023-08-31T14:17:36;6.75;;;1.77;;
63434;SDS011;68814;50.872;5.306;2023-08-31T14:20:02;4.15;;;1.52;;
63434;SDS011;68814;50.872;5.306;2023-08-31T14:22:31;6.72;;;1.63;;
63434;SDS011;68814;50.872;5.306;2023-08-31T14:25:01;8.57;;;1.75;;
63434;SDS011;68814;50.872;5.306;2023-08-31T14:27:29;7.18;;;1.60;;
63434;SDS011;68814;50.872;5.306;2023-08-31T14:29:56;6.03;;;1.75;;
63434;SDS011;68814;50.872;5.306;2023-08-31T14:32:23;7.03;;;1.60;;
63434;SDS011;68814;50.872;5.306;2023-08-31T14:34:48;6.38;;;1.85;;
63434;SDS011;68814;50.872;5.306;2023-08-31T14:37:14;4.95;;;1.60;;
63434;SDS011;68814;50.872;5.306;2023-08-31T14:39:40;6.95;;;1.50;;
63434;SDS011;68814;50.872;5.306;2023-08-31T14:42:09;5.63;;;1.52;;
63434;SDS011;68814;50.872;5.306;2023-08-31T14:44:38;7.18;;;1.65;;
63434;SDS011;68814;50.872;5.306;2023-08-31T14:47:08;10.80;;;2.45;;
63434;SDS011;68814;50.872;5.306;2023-08-31T14:49:34;8.02;;;2.28;;
63434;SDS011;68814;50.872;5.306;2023-08-31T14:52:04;5.43;;;1.75;;
63434;SDS011;68814;50.872;5.306;2023-08-31T14:54:31;5.82;;;1.55;;
63434;SDS011;68814;50.872;5.306;2023-08-31T14:56:57;3.35;;;1.58;;
63434;SDS011;68814;50.872;5.306;2023-08-31T14:59:23;6.15;;;1.48;;
63434;SDS011;68814;50.872;5.306;2023-08-31T15:01:49;5.40;;;1.70;;
63434;SDS011;68814;50.872;5.306;2023-08-31T15:04:15;5.80;;;1.67;;
63434;SDS011;68814;50.872;5.306;2023-08-31T15:06:41;6.35;;;1.63;;
63434;SDS011;68814;50.872;5.306;2023-08-31T15:09:07;8.80;;;1.95;;
63434;SDS011;68814;50.872;5.306;2023-08-31T15:11:32;9.38;;;1.58;;
63434;SDS011;68814;50.872;5.306;2023-08-31T15:13:58;7.22;;;1.60;;
63434;SDS011;68814;50.872;5.306;2023-08-31T15:16:24;8.05;;;1.65;;
63434;SDS011;68814;50.872;5.306;2023-08-31T15:18:49;6.45;;;1.60;;
63434;SDS011;68814;50.872;5.306;2023-08-31T15:21:15;11.57;;;2.08;;
63434;SDS011;68814;50.872;5.306;2023-08-31T15:23:42;5.15;;;1.48;;
63434;SDS011;68814;50.872;5.306;2023-08-31T15:26:09;7.47;;;1.85;;
63434;SDS011;68814;50.872;5.306;2023-08-31T15:28:36;8.45;;;1.80;;
63434;SDS011;68814;50.872;5.306;2023-08-31T15:31:01;5.85;;;1.58;;
63434;SDS011;68814;50.872;5.306;2023-08-31T15:33:27;6.78;;;1.83;;
63434;SDS011;68814;50.872;5.306;2023-08-31T15:36:06;5.03;;;1.67;;
63434;SDS011;68814;50.872;5.306;2023-08-31T15:38:34;9.40;;;2.05;;
63434;SDS011;68814;50.872;5.306;2023-08-31T15:41:00;9.30;;;1.75;;
63434;SDS011;68814;50.872;5.306;2023-08-31T15:43:29;8.73;;;2.50;;
63434;SDS011;68814;50.872;5.306;2023-08-31T15:45:59;8.98;;;2.15;;
63434;SDS011;68814;50.872;5.306;2023-08-31T15:48:26;6.55;;;1.80;;
63434;SDS011;68814;50.872;5.306;2023-08-31T15:50:53;7.90;;;2.13;;
63434;SDS011;68814;50.872;5.306;2023-08-31T15:53:20;6.80;;;2.25;;
63434;SDS011;68814;50.872;5.306;2023-08-31T15:55:46;8.95;;;3.38;;
63434;SDS011;68814;50.872;5.306;2023-08-31T15:58:15;7.22;;;2.72;;
63434;SDS011;68814;50.872;5.306;2023-08-31T16:00:41;5.97;;;2.13;;
63434;SDS011;68814;50.872;5.306;2023-08-31T16:03:08;10.50;;;2.33;;
63434;SDS011;68814;50.872;5.306;2023-08-31T16:05:35;8.88;;;1.85;;
63434;SDS011;68814;50.872;5.306;2023-08-31T16:08:01;7.18;;;2.25;;
63434;SDS011;68814;50.872;5.306;2023-08-31T16:10:28;4.75;;;1.65;;
63434;SDS011;68814;50.872;5.306;2023-08-31T16:12:54;6.90;;;1.80;;
63434;SDS011;68814;50.872;5.306;2023-08-31T16:15:21;5.30;;;1.40;;
63434;SDS011;68814;50.872;5.306;2023-08-31T16:17:50;6.93;;;2.00;;
63434;SDS011;68814;50.872;5.306;2023-08-31T16:20:16;8.70;;;1.70;;
63434;SDS011;68814;50.872;5.306;2023-08-31T16:22:45;5.47;;;1.80;;
63434;SDS011;68814;50.872;5.306;2023-08-31T16:25:14;12.75;;;2.85;;
63434;SDS011;68814;50.872;5.306;2023-08-31T16:34:04;7.65;;;1.65;;
63434;SDS011;68814;50.872;5.306;2023-08-31T16:46:46;7.82;;;1.63;;
63434;SDS011;68814;50.872;5.306;2023-08-31T16:49:12;7.97;;;1.77;;
63434;SDS011;68814;50.872;5.306;2023-08-31T16:51:37;8.90;;;1.83;;
63434;SDS011;68814;50.872;5.306;2023-08-31T16:54:04;8.82;;;2.15;;
63434;SDS011;68814;50.872;5.306;2023-08-31T16:56:31;6.57;;;1.80;;
63434;SDS011;68814;50.872;5.306;2023-08-31T16:58:58;9.98;;;1.73;;
63434;SDS011;68814;50.872;5.306;2023-08-31T17:01:24;7.95;;;1.98;;
63434;SDS011;68814;50.872;5.306;2023-08-31T17:03:50;6.70;;;1.98;;
63434;SDS011;68814;50.872;5.306;2023-08-31T17:06:15;8.35;;;1.58;;
63434;SDS011;68814;50.872;5.306;2023-08-31T17:08:41;8.15;;;1.55;;
63434;SDS011;68814;50.872;5.306;2023-08-31T17:11:07;8.13;;;1.52;;
63434;SDS011;68814;50.872;5.306;2023-08-31T17:13:36;8.30;;;1.95;;
63434;SDS011;68814;50.872;5.306;2023-08-31T17:16:08;11.60;;;2.10;;
63434;SDS011;68814;50.872;5.306;2023-08-31T17:18:37;11.43;;;1.75;;
63434;SDS011;68814;50.872;5.306;2023-08-31T17:21:03;9.02;;;1.88;;
63434;SDS011;68814;50.872;5.306;2023-08-31T17:23:31;8.57;;;1.70;;
63434;SDS011;68814;50.872;5.306;2023-08-31T17:25:57;6.80;;;1.38;;
63434;SDS011;68814;50.872;5.306;2023-08-31T17:28:23;7.68;;;1.75;;
63434;SDS011;68814;50.872;5.306;2023-08-31T17:30:49;7.93;;;1.90;;
63434;SDS011;68814;50.872;5.306;2023-08-31T17:33:17;6.68;;;1.55;;
63434;SDS011;68814;50.872;5.306;2023-08-31T17:35:43;7.68;;;1.55;;
63434;SDS011;68814;50.872;5.306;2023-08-31T17:38:09;11.63;;;2.25;;
63434;SDS011;68814;50.872;5.306;2023-08-31T17:40:37;11.02;;;1.83;;
63434;SDS011;68814;50.872;5.306;2023-08-31T17:43:03;9.77;;;1.80;;
63434;SDS011;68814;50.872;5.306;2023-08-31T17:45:29;7.88;;;1.65;;
63434;SDS011;68814;50.872;5.306;2023-08-31T17:47:55;7.82;;;2.47;;
63434;SDS011;68814;50.872;5.306;2023-08-31T17:50:21;7.10;;;1.80;;
63434;SDS011;68814;50.872;5.306;2023-08-31T17:52:47;9.68;;;1.80;;
63434;SDS011;68814;50.872;5.306;2023-08-31T17:55:13;10.57;;;2.63;;
63434;SDS011;68814;50.872;5.306;2023-08-31T17:57:38;8.52;;;2.35;;
63434;SDS011;68814;50.872;5.306;2023-08-31T18:00:05;8.10;;;1.95;;
63434;SDS011;68814;50.872;5.306;2023-08-31T18:02:38;11.60;;;2.83;;
63434;SDS011;68814;50.872;5.306;2023-08-31T18:05:03;9.85;;;2.42;;
63434;SDS011;68814;50.872;5.306;2023-08-31T18:07:29;10.20;;;2.17;;
63434;SDS011;68814;50.872;5.306;2023-08-31T18:09:55;9.02;;;2.38;;
63434;SDS011;68814;50.872;5.306;2023-08-31T18:12:21;8.27;;;1.95;;
63434;SDS011;68814;50.872;5.306;2023-08-31T18:14:47;10.18;;;2.30;;
63434;SDS011;68814;50.872;5.306;2023-08-31T18:17:12;6.80;;;2.58;;
63434;SDS011;68814;50.872;5.306;2023-08-31T18:19:38;8.98;;;2.67;;
63434;SDS011;68814;50.872;5.306;2023-08-31T18:22:04;11.63;;;2.20;;
63434;SDS011;68814;50.872;5.306;2023-08-31T18:24:30;8.77;;;2.92;;
63434;SDS011;68814;50.872;5.306;2023-08-31T18:26:55;8.93;;;2.40;;
63434;SDS011;68814;50.872;5.306;2023-08-31T18:29:21;9.40;;;2.40;;
63434;SDS011;68814;50.872;5.306;2023-08-31T18:31:56;11.95;;;2.58;;
63434;SDS011;68814;50.872;5.306;2023-08-31T18:34:21;10.15;;;2.38;;
63434;SDS011;68814;50.872;5.306;2023-08-31T18:36:47;12.40;;;2.92;;
63434;SDS011;68814;50.872;5.306;2023-08-31T18:39:13;9.98;;;3.10;;
63434;SDS011;68814;50.872;5.306;2023-08-31T18:41:38;9.20;;;2.38;;
63434;SDS011;68814;50.872;5.306;2023-08-31T18:44:05;8.07;;;2.33;;
63434;SDS011;68814;50.872;5.306;2023-08-31T18:46:31;11.25;;;2.80;;
63434;SDS011;68814;50.872;5.306;2023-08-31T18:48:56;14.55;;;3.03;;
63434;SDS011;68814;50.872;5.306;2023-08-31T18:51:22;14.07;;;2.97;;
63434;SDS011;68814;50.872;5.306;2023-08-31T18:53:48;8.32;;;2.67;;
63434;SDS011;68814;50.872;5.306;2023-08-31T18:56:14;8.55;;;2.10;;
63434;SDS011;68814;50.872;5.306;2023-08-31T18:58:40;10.52;;;2.42;;
63434;SDS011;68814;50.872;5.306;2023-08-31T19:01:08;13.07;;;2.58;;
63434;SDS011;68814;50.872;5.306;2023-08-31T19:03:34;9.45;;;2.90;;
63434;SDS011;68814;50.872;5.306;2023-08-31T19:06:00;11.07;;;2.58;;
63434;SDS011;68814;50.872;5.306;2023-08-31T19:08:26;6.30;;;2.90;;
63434;SDS011;68814;50.872;5.306;2023-08-31T19:10:52;8.70;;;2.15;;
63434;SDS011;68814;50.872;5.306;2023-08-31T19:13:18;9.80;;;2.85;;
63434;SDS011;68814;50.872;5.306;2023-08-31T19:15:44;9.10;;;2.63;;
63434;SDS011;68814;50.872;5.306;2023-08-31T19:18:09;9.18;;;3.05;;
63434;SDS011;68814;50.872;5.306;2023-08-31T19:20:36;8.52;;;3.17;;
63434;SDS011;68814;50.872;5.306;2023-08-31T19:23:03;13.10;;;3.33;;
63434;SDS011;68814;50.872;5.306;2023-08-31T19:25:29;9.43;;;2.45;;
63434;SDS011;68814;50.872;5.306;2023-08-31T19:28:04;14.07;;;3.50;;
63434;SDS011;68814;50.872;5.306;2023-08-31T19:30:31;10.60;;;3.03;;
63434;SDS011;68814;50.872;5.306;2023-08-31T19:32:58;11.07;;;3.40;;
63434;SDS011;68814;50.872;5.306;2023-08-31T19:35:25;13.77;;;3.70;;
63434;SDS011;68814;50.872;5.306;2023-08-31T19:37:51;8.25;;;3.17;;
63434;SDS011;68814;50.872;5.306;2023-08-31T19:40:18;10.68;;;3.05;;
63434;SDS011;68814;50.872;5.306;2023-08-31T19:42:48;8.52;;;2.67;;
63434;SDS011;68814;50.872;5.306;2023-08-31T19:45:15;9.77;;;2.50;;
63434;SDS011;68814;50.872;5.306;2023-08-31T19:47:45;6.57;;;2.58;;